createdAt,value
2023-04-11T00:02:26.339Z,10.72
2023-04-11T00:04:57.356Z,10.62
2023-04-11T00:07:24.026Z,10.48
2023-04-11T00:09:50.759Z,10.44
2023-04-11T00:12:17.508Z,10.36
2023-04-11T00:14:48.904Z,10.36
2023-04-11T00:17:17.611Z,10.38
2023-04-11T00:19:46.166Z,10.27
2023-04-11T00:22:13.924Z,9.99
2023-04-11T00:24:40.636Z,9.85
2023-04-11T00:27:07.510Z,9.71
2023-04-11T00:29:35.637Z,9.57
2023-04-11T00:32:02.699Z,9.53
2023-04-11T00:34:29.911Z,9.51
2023-04-11T00:36:56.571Z,9.46
2023-04-11T00:39:26.487Z,9.49
2023-04-11T00:41:53.262Z,9.44
2023-04-11T00:44:19.999Z,9.44
2023-04-11T00:46:46.955Z,9.40
2023-04-11T00:49:13.691Z,9.27
2023-04-11T00:51:40.732Z,9.34
2023-04-11T00:54:10.435Z,9.34
2023-04-11T00:56:37.429Z,9.29
2023-04-11T00:59:04.200Z,9.37
2023-04-11T01:01:36.454Z,9.40
2023-04-11T01:04:04.713Z,9.44
2023-04-11T01:06:33.009Z,9.45
2023-04-11T01:08:59.910Z,9.48
2023-04-11T01:11:27.065Z,9.58
2023-04-11T01:13:54.530Z,9.60
2023-04-11T01:16:21.804Z,9.68
2023-04-11T01:18:49.828Z,9.61
2023-04-11T01:21:19.640Z,9.50
2023-04-11T01:23:49.056Z,9.45
2023-04-11T01:26:16.177Z,9.41
2023-04-11T01:28:43.068Z,9.50
2023-04-11T01:31:09.916Z,9.53
2023-04-11T01:33:36.999Z,9.44
2023-04-11T01:36:04.153Z,9.38
2023-04-11T01:38:30.890Z,9.29
2023-04-11T01:40:58.170Z,9.30
2023-04-11T01:43:24.835Z,9.37
2023-04-11T01:45:51.940Z,9.38
2023-04-11T01:48:21.155Z,9.34
2023-04-11T01:50:47.851Z,9.29
2023-04-11T01:53:14.533Z,9.32
2023-04-11T01:55:41.207Z,9.16
2023-04-11T01:58:07.852Z,9.16
2023-04-11T02:00:37.094Z,9.11
2023-04-11T02:03:05.336Z,9.06
2023-04-11T02:05:32.437Z,9.04
2023-04-11T02:07:59.309Z,9.02
2023-04-11T02:10:25.996Z,9.00
2023-04-11T02:12:52.709Z,9.00
2023-04-11T02:15:19.384Z,9.01
2023-04-11T02:17:47.342Z,8.97
2023-04-11T02:20:14.660Z,8.94
2023-04-11T02:22:41.790Z,8.91
2023-04-11T02:25:08.985Z,8.94
2023-04-11T02:27:35.798Z,8.92
2023-04-11T02:30:05.896Z,8.95
2023-04-11T02:32:40.371Z,8.96
2023-04-11T02:35:08.263Z,9.04
2023-04-11T02:37:35.833Z,9.02
2023-04-11T02:40:04.567Z,8.95
2023-04-11T02:42:31.351Z,8.98
2023-04-11T02:44:59.234Z,8.93
2023-04-11T02:47:28.236Z,8.93
2023-04-11T02:49:59.700Z,8.89
2023-04-11T02:52:33.523Z,8.90
2023-04-11T02:55:00.662Z,8.90
2023-04-11T02:57:27.885Z,8.86
2023-04-11T02:59:55.722Z,8.73
2023-04-11T03:02:30.125Z,8.73
2023-04-11T03:04:58.606Z,8.72
2023-04-11T03:07:27.179Z,8.57
2023-04-11T03:09:57.059Z,8.52
2023-04-11T03:12:23.753Z,8.53
2023-04-11T03:15:00.489Z,8.45
2023-04-11T03:17:27.622Z,8.38
2023-04-11T03:19:54.987Z,8.34
2023-04-11T03:22:24.523Z,8.27
2023-04-11T03:24:51.273Z,8.10
2023-04-11T03:27:21.457Z,7.97
2023-04-11T03:29:52.550Z,7.76
2023-04-11T03:32:26.656Z,7.69
2023-04-11T03:34:53.651Z,7.65
2023-04-11T03:37:22.046Z,7.71
2023-04-11T03:39:48.726Z,7.75
2023-04-11T03:42:16.134Z,7.83
2023-04-11T03:44:43.078Z,7.92
2023-04-11T03:47:10.334Z,7.95
2023-04-11T03:49:41.740Z,7.86
2023-04-11T03:52:09.880Z,7.83
2023-04-11T03:54:37.916Z,7.83
2023-04-11T03:57:07.648Z,7.84
2023-04-11T03:59:34.830Z,7.77
2023-04-11T04:02:09.244Z,7.78
2023-04-11T04:04:46.828Z,7.75
2023-04-11T04:07:22.308Z,7.75
2023-04-11T04:09:51.866Z,7.75
2023-04-11T04:12:22.332Z,7.77
2023-04-11T04:15:14.711Z,7.82
2023-04-11T04:17:44.098Z,7.75
2023-04-11T04:20:17.330Z,7.73
2023-04-11T04:22:49.193Z,7.67
2023-04-11T04:25:20.657Z,7.68
2023-04-11T04:27:49.495Z,7.77
2023-04-11T04:30:16.307Z,7.70
2023-04-11T04:33:00.025Z,7.50
2023-04-11T04:35:27.577Z,7.33
2023-04-11T04:37:56.384Z,7.12
2023-04-11T04:40:43.901Z,6.90
2023-04-11T04:43:18.485Z,6.52
2023-04-11T04:46:03.994Z,6.12
2023-04-11T04:48:38.617Z,5.93
2023-04-11T04:51:06.979Z,5.86
2023-04-11T04:53:38.967Z,5.80
2023-04-11T04:56:08.006Z,5.77
2023-04-11T04:58:39.044Z,5.82
2023-04-11T05:01:09.171Z,5.74
2023-04-11T05:03:38.907Z,5.75
2023-04-11T05:06:10.709Z,5.60
2023-04-11T05:08:38.916Z,5.56
2023-04-11T05:11:08.069Z,5.49
2023-04-11T05:13:36.281Z,5.41
2023-04-11T05:16:04.824Z,5.39
2023-04-11T05:18:31.770Z,5.34
2023-04-11T05:20:58.659Z,5.31
2023-04-11T05:23:31.851Z,5.29
2023-04-11T05:26:02.131Z,5.28
2023-04-11T05:28:31.691Z,5.21
2023-04-11T05:30:59.173Z,5.21
2023-04-11T05:33:29.326Z,5.21
2023-04-11T05:35:57.799Z,5.22
2023-04-11T05:38:24.504Z,5.04
2023-04-11T05:40:51.202Z,4.75
2023-04-11T05:43:19.486Z,4.75
2023-04-11T05:45:48.016Z,4.75
2023-04-11T05:48:17.162Z,4.63
2023-04-11T05:50:43.802Z,4.55
2023-04-11T05:53:10.507Z,4.55
2023-04-11T05:55:37.901Z,4.49
2023-04-11T05:58:04.947Z,4.48
2023-04-11T06:00:32.243Z,4.49
2023-04-11T06:03:00.544Z,4.44
2023-04-11T06:05:31.357Z,4.36
2023-04-11T06:07:59.678Z,4.41
2023-04-11T06:10:27.028Z,4.44
2023-04-11T06:12:54.166Z,4.50
2023-04-11T06:15:22.493Z,4.56
2023-04-11T06:17:49.260Z,4.52
2023-04-11T06:20:16.888Z,4.55
2023-04-11T06:22:44.236Z,4.58
2023-04-11T06:25:10.915Z,4.63
2023-04-11T06:27:37.869Z,4.70
2023-04-11T06:30:05.220Z,4.72
2023-04-11T06:32:31.976Z,4.87
2023-04-11T06:34:58.745Z,4.93
2023-04-11T06:37:25.365Z,4.91
2023-04-11T06:39:52.025Z,4.97
2023-04-11T06:42:18.717Z,4.97
2023-04-11T06:44:46.290Z,5.00
2023-04-11T06:47:13.202Z,5.13
2023-04-11T06:49:41.004Z,5.14
2023-04-11T06:52:07.633Z,5.32
2023-04-11T06:54:34.381Z,5.33
2023-04-11T06:57:02.240Z,5.31
2023-04-11T06:59:29.496Z,5.46
2023-04-11T07:01:56.485Z,5.55
2023-04-11T07:04:23.470Z,5.82
2023-04-11T07:06:50.680Z,6.05
2023-04-11T07:09:17.383Z,6.21
2023-04-11T07:11:44.433Z,6.25
2023-04-11T07:14:11.282Z,6.32
2023-04-11T07:16:38.438Z,6.56
2023-04-11T07:19:05.412Z,6.57
2023-04-11T07:21:32.502Z,6.55
2023-04-11T07:24:00.746Z,6.52
2023-04-11T07:26:32.010Z,6.64
2023-04-11T07:29:02.136Z,6.65
2023-04-11T07:31:28.924Z,6.72
2023-04-11T07:33:56.029Z,6.80
2023-04-11T07:36:23.035Z,6.68
2023-04-11T07:38:49.850Z,6.68
2023-04-11T07:41:16.589Z,6.56
2023-04-11T07:43:43.382Z,6.57
2023-04-11T07:46:10.228Z,6.45
2023-04-11T07:48:37.046Z,6.45
2023-04-11T07:51:03.812Z,6.43
2023-04-11T07:53:32.785Z,6.51
2023-04-11T07:55:59.797Z,6.67
2023-04-11T07:58:26.562Z,6.93
2023-04-11T08:00:53.720Z,7.11
2023-04-11T08:03:21.039Z,7.26
2023-04-11T08:05:47.971Z,7.30
2023-04-11T08:08:14.749Z,7.09
2023-04-11T08:10:41.567Z,7.31
2023-04-11T08:13:08.234Z,7.23
2023-04-11T08:15:36.922Z,7.37
2023-04-11T08:18:05.141Z,7.57
2023-04-11T08:20:31.892Z,8.03
2023-04-11T08:22:59.597Z,8.15
2023-04-11T08:25:26.456Z,8.16
2023-04-11T08:27:53.389Z,8.57
2023-04-11T08:30:20.701Z,8.66
2023-04-11T08:32:47.559Z,8.82
2023-04-11T08:35:14.375Z,8.89
2023-04-11T08:37:41.587Z,8.91
2023-04-11T08:40:09.199Z,8.89
2023-04-11T08:42:36.443Z,8.80
2023-04-11T08:45:05.324Z,8.63
2023-04-11T08:47:32.207Z,8.79
2023-04-11T08:49:59.002Z,8.93
2023-04-11T08:52:26.015Z,8.59
2023-04-11T08:54:57.500Z,8.46
2023-04-11T08:57:31.510Z,8.54
2023-04-11T09:00:02.352Z,8.57
2023-04-11T09:02:29.469Z,8.64
2023-04-11T09:04:57.658Z,8.30
2023-04-11T09:07:24.557Z,8.43
2023-04-11T09:09:51.202Z,8.73
2023-04-11T09:12:29.246Z,9.15
2023-04-11T09:14:56.349Z,9.36
2023-04-11T09:17:23.120Z,9.50
2023-04-11T09:19:49.900Z,9.60
2023-04-11T09:22:16.599Z,9.84
2023-04-11T09:24:43.358Z,9.67
2023-04-11T09:27:19.712Z,9.61
2023-04-11T09:29:48.310Z,9.40
2023-04-11T09:32:35.101Z,9.52
2023-04-11T09:35:20.436Z,9.84
2023-04-11T09:38:00.299Z,9.41
2023-04-11T09:40:31.478Z,9.34
2023-04-11T09:43:03.899Z,9.38
2023-04-11T09:45:38.283Z,9.52
2023-04-11T09:48:13.023Z,9.85
2023-04-11T09:50:41.038Z,10.00
2023-04-11T09:53:07.764Z,10.06
2023-04-11T09:55:34.596Z,10.25
2023-04-11T09:58:01.405Z,10.25
2023-04-11T10:00:32.319Z,10.33
2023-04-11T10:02:59.388Z,10.38
2023-04-11T10:05:28.276Z,10.50
2023-04-11T10:08:17.396Z,10.25
2023-04-11T10:10:44.319Z,10.39
2023-04-11T10:13:43.030Z,10.15
2023-04-11T10:16:13.558Z,10.31
2023-04-11T10:18:56.265Z,10.60
2023-04-11T10:21:28.962Z,10.52
2023-04-11T10:24:14.796Z,10.41
2023-04-11T10:26:55.883Z,10.64
2023-04-11T10:29:36.415Z,10.58
2023-04-11T10:32:19.428Z,10.41
2023-04-11T10:34:50.621Z,10.23
2023-04-11T10:37:18.478Z,10.30
2023-04-11T10:39:48.542Z,10.10
2023-04-11T10:42:34.039Z,10.25
2023-04-11T10:45:27.982Z,9.99
2023-04-11T10:48:07.511Z,10.18
2023-04-11T10:50:42.032Z,10.47
2023-04-11T10:53:33.920Z,10.67
2023-04-11T10:56:01.728Z,10.88
2023-04-11T10:58:37.158Z,10.68
2023-04-11T11:01:04.597Z,11.09
2023-04-11T11:03:34.377Z,11.03
2023-04-11T11:06:06.871Z,11.08
2023-04-11T11:08:38.069Z,11.11
2023-04-11T11:11:07.027Z,11.23
2023-04-11T11:13:44.023Z,11.01
2023-04-11T11:16:18.371Z,11.08
2023-04-11T11:18:48.518Z,11.22
2023-04-11T11:21:24.772Z,11.36
2023-04-11T11:23:59.266Z,11.47
2023-04-11T11:26:44.034Z,11.51
2023-04-11T11:29:11.337Z,12.00
2023-04-11T11:31:40.098Z,12.00
2023-04-11T11:34:22.113Z,11.89
2023-04-11T11:36:50.125Z,11.89
2023-04-11T11:39:17.279Z,12.08
2023-04-11T11:41:44.084Z,12.31
2023-04-11T11:44:24.425Z,12.53
2023-04-11T11:47:20.687Z,12.75
2023-04-11T11:49:49.204Z,12.82
2023-04-11T11:52:32.832Z,12.77
2023-04-11T11:54:59.819Z,12.68
2023-04-11T11:57:27.551Z,12.63
2023-04-11T11:59:58.127Z,12.22
2023-04-11T12:02:26.248Z,12.39
2023-04-11T12:05:05.980Z,12.30
2023-04-11T12:07:36.155Z,12.67
2023-04-11T12:10:08.755Z,12.50
2023-04-11T12:12:37.125Z,12.42
2023-04-11T12:15:11.056Z,12.18
2023-04-11T12:17:38.744Z,12.09
2023-04-11T12:20:07.796Z,11.86
2023-04-11T12:22:38.650Z,11.84
2023-04-11T12:25:06.523Z,12.09
2023-04-11T12:27:34.969Z,12.08
2023-04-11T12:30:02.061Z,12.15
2023-04-11T12:32:28.814Z,12.15
2023-04-11T12:34:56.102Z,12.50
2023-04-11T12:37:23.598Z,12.45
2023-04-11T12:39:50.439Z,12.23
2023-04-11T12:42:20.950Z,12.23
2023-04-11T12:44:51.686Z,12.51
2023-04-11T12:47:18.464Z,12.53
2023-04-11T12:49:45.330Z,12.75
2023-04-11T12:52:12.263Z,12.59
2023-04-11T12:54:39.000Z,12.39
2023-04-11T12:57:08.449Z,12.75
2023-04-11T12:59:35.181Z,12.75
2023-04-11T13:02:02.133Z,12.77
2023-04-11T13:04:29.353Z,12.69
2023-04-11T13:07:00.831Z,12.84
2023-04-11T13:09:34.137Z,12.62
2023-04-11T13:12:04.001Z,12.59
2023-04-11T13:14:31.071Z,12.31
2023-04-11T13:16:57.916Z,11.99
2023-04-11T13:19:25.024Z,12.25
2023-04-11T13:21:51.789Z,12.19
2023-04-11T13:24:19.056Z,11.96
2023-04-11T13:26:45.905Z,12.04
2023-04-11T13:29:12.741Z,12.22
2023-04-11T13:31:40.046Z,12.39
2023-04-11T13:34:08.140Z,12.20
2023-04-11T13:36:36.209Z,12.59
2023-04-11T13:39:04.245Z,12.78
2023-04-11T13:41:35.485Z,13.03
2023-04-11T13:44:03.086Z,13.02
2023-04-11T13:46:30.951Z,12.92
2023-04-11T13:49:08.674Z,12.91
2023-04-11T13:51:41.403Z,12.95
2023-04-11T13:54:09.045Z,13.25
2023-04-11T13:57:02.780Z,13.24
2023-04-11T13:59:37.518Z,12.92
2023-04-11T14:02:05.618Z,12.78
2023-04-11T14:04:33.186Z,13.19
2023-04-11T14:07:01.181Z,13.17
2023-04-11T14:09:29.276Z,13.40
2023-04-11T14:11:57.026Z,13.62
2023-04-11T14:14:24.473Z,13.74
2023-04-11T14:16:52.934Z,13.95
2023-04-11T14:19:22.854Z,14.04
2023-04-11T14:21:52.319Z,13.85
2023-04-11T14:24:22.448Z,13.60
2023-04-11T14:26:50.201Z,14.02
2023-04-11T14:29:16.897Z,13.56
2023-04-11T14:31:44.098Z,13.43
2023-04-11T14:34:10.812Z,13.32
2023-04-11T14:36:37.487Z,13.53
2023-04-11T14:39:05.134Z,13.47
2023-04-11T14:41:31.886Z,13.68
2023-04-11T14:43:58.782Z,13.63
2023-04-11T14:46:25.773Z,13.35
2023-04-11T14:48:52.670Z,13.61
2023-04-11T14:51:19.333Z,13.55
2023-04-11T14:53:50.370Z,13.54
2023-04-11T14:56:17.066Z,13.53
2023-04-11T14:58:43.906Z,14.11
2023-04-11T15:01:11.685Z,14.47
2023-04-11T15:03:38.616Z,14.10
2023-04-11T15:06:05.815Z,14.03
2023-04-11T15:08:33.798Z,13.91
2023-04-11T15:11:00.638Z,13.31
2023-04-11T15:13:27.369Z,12.75
2023-04-11T15:15:54.390Z,12.36
2023-04-11T15:18:26.939Z,12.17
2023-04-11T15:20:55.094Z,12.21
2023-04-11T15:23:22.208Z,12.24
2023-04-11T15:26:03.153Z,12.19
2023-04-11T15:28:37.573Z,12.04
2023-04-11T15:31:07.269Z,11.98
2023-04-11T15:33:34.121Z,11.65
2023-04-11T15:36:01.426Z,11.51
2023-04-11T15:38:29.348Z,11.33
2023-04-11T15:40:59.811Z,11.15
2023-04-11T15:43:27.233Z,11.14
2023-04-11T15:45:54.532Z,10.95
2023-04-11T15:48:21.319Z,10.74
2023-04-11T15:50:48.186Z,10.75
2023-04-11T15:53:14.975Z,10.85
2023-04-11T15:55:42.710Z,10.93
2023-04-11T15:58:09.938Z,10.90
2023-04-11T16:00:38.224Z,10.86
2023-04-11T16:03:08.601Z,10.98
2023-04-11T16:05:40.677Z,11.02
2023-04-11T16:08:08.060Z,11.18
2023-04-11T16:10:35.132Z,11.17
2023-04-11T16:13:02.688Z,10.93
2023-04-11T16:15:29.485Z,11.03
2023-04-11T16:17:56.242Z,10.97
2023-04-11T16:20:23.338Z,10.88
2023-04-11T16:22:50.217Z,10.67
2023-04-11T16:25:20.864Z,10.56
2023-04-11T16:27:48.318Z,10.65
2023-04-11T16:30:17.797Z,10.62
2023-04-11T16:32:44.677Z,10.39
2023-04-11T16:35:11.936Z,10.22
2023-04-11T16:37:38.700Z,10.28
2023-04-11T16:40:11.069Z,10.25
2023-04-11T16:42:38.547Z,10.22
2023-04-11T16:45:07.217Z,10.22
2023-04-11T16:47:34.095Z,10.34
2023-04-11T16:50:01.144Z,10.25
2023-04-11T16:52:28.320Z,10.16
2023-04-11T16:54:55.060Z,10.02
2023-04-11T16:57:21.728Z,9.91
2023-04-11T16:59:48.347Z,9.66
2023-04-11T17:02:16.122Z,9.57
2023-04-11T17:04:43.006Z,9.28
2023-04-11T17:07:09.956Z,9.28
2023-04-11T17:09:36.767Z,9.18
2023-04-11T17:12:03.943Z,9.19
2023-04-11T17:14:31.025Z,9.19
2023-04-11T17:16:57.854Z,9.14
2023-04-11T17:19:25.637Z,9.10
2023-04-11T17:21:52.378Z,9.03
2023-04-11T17:24:19.084Z,8.88
2023-04-11T17:26:45.776Z,8.76
2023-04-11T17:29:12.996Z,8.61
2023-04-11T17:31:39.676Z,8.43
2023-04-11T17:34:06.471Z,8.42
2023-04-11T17:36:33.140Z,8.36
2023-04-11T17:38:59.927Z,8.39
2023-04-11T17:41:26.582Z,8.26
2023-04-11T17:43:56.134Z,8.14
2023-04-11T17:46:23.285Z,8.00
2023-04-11T17:48:50.194Z,7.98
2023-04-11T17:51:16.917Z,7.95
2023-04-11T17:53:43.926Z,7.91
2023-04-11T17:56:12.356Z,7.64
2023-04-11T17:58:44.185Z,7.66
2023-04-11T18:01:13.793Z,7.72
2023-04-11T18:03:41.229Z,7.72
2023-04-11T18:06:08.696Z,7.66
2023-04-11T18:08:49.683Z,7.61
2023-04-11T18:11:17.025Z,7.46
2023-04-11T18:13:43.972Z,7.47
2023-04-11T18:16:12.057Z,7.35
2023-04-11T18:18:39.204Z,7.34
2023-04-11T18:21:07.769Z,7.24
2023-04-11T18:23:35.900Z,7.20
2023-04-11T18:26:03.146Z,7.11
2023-04-11T18:28:31.001Z,7.12
2023-04-11T18:30:57.865Z,7.09
2023-04-11T18:33:26.624Z,7.05
2023-04-11T18:35:59.331Z,6.99
2023-04-11T18:38:29.019Z,7.14
2023-04-11T18:41:03.530Z,7.04
2023-04-11T18:43:35.719Z,7.06
2023-04-11T18:46:02.921Z,6.98
2023-04-11T18:48:31.845Z,6.86
2023-04-11T18:51:01.353Z,6.97
2023-04-11T18:53:30.267Z,7.09
2023-04-11T18:55:58.272Z,7.11
2023-04-11T18:58:27.790Z,7.11
2023-04-11T19:00:56.039Z,7.01
2023-04-11T19:03:24.070Z,7.00
2023-04-11T19:05:51.734Z,7.08
2023-04-11T19:08:18.558Z,7.05
2023-04-11T19:10:45.352Z,6.93
2023-04-11T19:13:12.026Z,6.76
2023-04-11T19:15:41.089Z,6.73
2023-04-11T19:18:08.988Z,6.79
2023-04-11T19:20:38.426Z,6.89
2023-04-11T19:23:05.864Z,6.98
2023-04-11T19:25:32.619Z,6.93
2023-04-11T19:27:59.298Z,6.78
2023-04-11T19:30:26.238Z,6.78
2023-04-11T19:32:52.967Z,6.79
2023-04-11T19:35:24.190Z,6.69
2023-04-11T19:37:51.036Z,6.78
2023-04-11T19:40:18.687Z,6.81
2023-04-11T19:42:45.626Z,6.67
2023-04-11T19:45:12.490Z,6.66
2023-04-11T19:47:42.413Z,6.63
2023-04-11T19:50:13.039Z,6.71
2023-04-11T19:52:40.922Z,6.66
2023-04-11T19:55:09.382Z,6.56
2023-04-11T19:57:38.318Z,6.55
2023-04-11T20:00:17.100Z,6.63
2023-04-11T20:02:45.960Z,6.55
2023-04-11T20:05:19.274Z,6.47
2023-04-11T20:07:46.742Z,6.45
2023-04-11T20:10:14.512Z,6.44
2023-04-11T20:12:41.404Z,6.45
2023-04-11T20:15:09.243Z,6.42
2023-04-11T20:17:36.067Z,6.41
2023-04-11T20:20:06.097Z,6.49
2023-04-11T20:22:33.353Z,6.47
2023-04-11T20:25:00.071Z,6.46
2023-04-11T20:27:28.296Z,6.49
2023-04-11T20:29:56.689Z,6.34
2023-04-11T20:32:24.055Z,6.41
2023-04-11T20:34:51.122Z,6.54
2023-04-11T20:37:19.632Z,6.49
2023-04-11T20:39:46.518Z,6.53
2023-04-11T20:42:13.783Z,6.40
2023-04-11T20:44:41.807Z,6.38
2023-04-11T20:47:09.189Z,6.44
2023-04-11T20:49:36.365Z,6.41
2023-04-11T20:52:03.717Z,6.43
2023-04-11T20:54:30.510Z,6.32
2023-04-11T20:56:57.170Z,6.35
2023-04-11T20:59:23.858Z,6.24
2023-04-11T21:01:50.766Z,6.25
2023-04-11T21:04:18.708Z,6.37
2023-04-11T21:06:46.129Z,6.32
2023-04-11T21:09:13.229Z,6.26
2023-04-11T21:11:40.544Z,6.30
2023-04-11T21:14:07.747Z,6.32
2023-04-11T21:16:34.792Z,6.36
2023-04-11T21:19:02.096Z,6.36
2023-04-11T21:21:29.160Z,6.40
2023-04-11T21:23:56.419Z,6.41
2023-04-11T21:26:23.881Z,6.48
2023-04-11T21:28:51.181Z,6.40
2023-04-11T21:31:18.438Z,6.38
2023-04-11T21:33:46.754Z,6.24
2023-04-11T21:36:13.942Z,6.22
2023-04-11T21:38:41.054Z,6.31
2023-04-11T21:41:08.187Z,6.27
2023-04-11T21:43:35.267Z,6.35
2023-04-11T21:46:02.255Z,6.41
2023-04-11T21:48:29.426Z,6.44
2023-04-11T21:50:56.422Z,6.47
2023-04-11T21:53:23.613Z,6.45
2023-04-11T21:55:50.975Z,6.40
2023-04-11T21:58:28.661Z,6.48
2023-04-11T22:00:56.380Z,6.53
2023-04-11T22:03:23.794Z,6.57
2023-04-11T22:05:52.489Z,6.59
2023-04-11T22:08:20.125Z,6.58
2023-04-11T22:10:48.368Z,6.52
2023-04-11T22:13:17.788Z,6.47
2023-04-11T22:15:45.778Z,6.38
2023-04-11T22:18:13.148Z,6.35
2023-04-11T22:20:43.645Z,6.27
2023-04-11T22:23:12.841Z,6.20
2023-04-11T22:25:42.274Z,6.23
2023-04-11T22:28:13.967Z,6.23
2023-04-11T22:30:41.350Z,6.20
2023-04-11T22:33:08.090Z,6.14
2023-04-11T22:35:35.188Z,6.21
2023-04-11T22:38:03.546Z,6.20
2023-04-11T22:40:41.902Z,6.21
2023-04-11T22:43:11.930Z,6.15
2023-04-11T22:45:38.625Z,6.15
2023-04-11T22:48:06.276Z,6.09
2023-04-11T22:50:37.323Z,6.17
2023-04-11T22:53:04.419Z,6.19
2023-04-11T22:55:35.414Z,6.19
2023-04-11T22:58:02.684Z,6.20
2023-04-11T23:00:30.071Z,6.13
2023-04-11T23:02:59.957Z,6.07
2023-04-11T23:05:26.783Z,6.13
2023-04-11T23:07:53.559Z,6.16
2023-04-11T23:10:20.283Z,6.21
2023-04-11T23:12:47.415Z,6.23
2023-04-11T23:15:14.464Z,6.29
2023-04-11T23:17:41.439Z,6.28
2023-04-11T23:20:13.331Z,6.28
2023-04-11T23:22:42.327Z,6.33
2023-04-11T23:25:15.147Z,6.24
2023-04-11T23:27:43.639Z,6.21
2023-04-11T23:30:14.234Z,6.11
2023-04-11T23:32:41.610Z,6.11
2023-04-11T23:35:09.040Z,6.06
2023-04-11T23:37:35.713Z,6.02
2023-04-11T23:40:10.985Z,6.09
2023-04-11T23:42:38.712Z,6.07
2023-04-11T23:45:10.674Z,6.03
2023-04-11T23:47:37.692Z,6.01
2023-04-11T23:50:04.825Z,5.96
2023-04-11T23:52:32.084Z,5.92
2023-04-11T23:54:59.001Z,6.03
2023-04-11T23:57:25.914Z,6.07
2023-04-11T23:59:52.684Z,6.03
